Time;durP1;ratioP1;P1;durP2;ratioP2;P2;SDS_P1;SDS_P2;PMS_P1;PMS_P2;Temp;Humidity;BMP_temperature;BMP_pressure;BME280_temperature;BME280_humidity;BME280_pressure;Samples;Min_cycle;Max_cycle;Signal;HPM_P1;HPM_P2
2022/01/30 00:00:47;;;;;;;107.18;19.98;;;30.40;68.20;;;;;;5093735;28;20024;-53
2022/01/30 00:03:15;;;;;;;84.68;17.23;;;30.40;68.20;;;;;;5077213;28;20034;-55
2022/01/30 00:05:42;;;;;;;66.63;14.75;;;30.40;68.30;;;;;;5096580;28;20016;-53
2022/01/30 00:08:09;;;;;;;55.33;13.30;;;30.40;68.60;;;;;;5097839;28;20214;-52
2022/01/30 00:10:39;;;;;;;61.25;13.75;;;30.40;68.70;;;;;;5075462;28;20016;-51
2022/01/30 00:13:13;;;;;;;47.80;12.98;;;30.30;69.00;;;;;;5061745;28;20012;-52
2022/01/30 00:15:48;;;;;;;128.32;17.70;;;30.30;69.00;;;;;;5084097;28;20059;-52
2022/01/30 00:21:11;;;;;;;35.05;12.23;;;30.20;69.20;;;;;;5085478;28;20026;-47
2022/01/30 00:23:55;;;;;;;40.17;12.52;;;30.20;69.30;;;;;;5083340;28;20079;-46
2022/01/30 00:26:28;;;;;;;51.20;12.27;;;30.20;69.30;;;;;;5075207;28;20049;-53
2022/01/30 00:28:55;;;;;;;56.20;13.88;;;30.10;69.10;;;;;;5082758;28;20217;-53
2022/01/30 00:31:23;;;;;;;270.50;21.65;;;30.10;69.20;;;;;;5084513;28;20016;-52
2022/01/30 00:33:51;;;;;;;235.50;19.70;;;30.10;69.30;;;;;;5084690;28;20072;-57
2022/01/30 00:36:19;;;;;;;225.80;20.55;;;30.10;69.30;;;;;;5084908;28;20032;-57
2022/01/30 00:38:46;;;;;;;73.47;13.93;;;30.10;69.20;;;;;;5085222;28;20032;-50
2022/01/30 00:41:13;;;;;;;58.38;13.52;;;30.10;69.30;;;;;;5067264;28;20070;-56
2022/01/30 00:43:40;;;;;;;79.38;13.20;;;30.00;69.20;;;;;;5085249;28;20031;-51
2022/01/30 00:46:06;;;;;;;53.13;12.35;;;30.00;69.20;;;;;;5084761;28;20025;-52
2022/01/30 00:48:33;;;;;;;54.05;12.48;;;30.00;69.00;;;;;;5083578;28;20339;-56
2022/01/30 00:51:00;;;;;;;57.53;11.70;;;29.90;69.10;;;;;;5084637;28;20028;-52
2022/01/30 00:53:27;;;;;;;40.13;11.60;;;29.90;69.00;;;;;;5083310;28;20017;-52
2022/01/30 00:56:14;;;;;;;88.65;16.98;;;29.90;69.20;;;;;;5042531;28;20037;-55
2022/01/30 00:58:40;;;;;;;124.68;19.50;;;29.90;68.70;;;;;;5040905;28;20033;-52
2022/01/30 01:01:07;;;;;;;146.77;21.88;;;29.90;68.00;;;;;;5026698;28;20037;-55
2022/01/30 01:03:34;;;;;;;95.88;16.70;;;30.00;68.60;;;;;;5043364;28;20076;-51
2022/01/30 01:06:03;;;;;;;64.70;14.15;;;29.90;67.80;;;;;;5027104;28;20152;-54
2022/01/30 01:08:46;;;;;;;60.40;12.20;;;29.90;68.00;;;;;;5042326;28;20041;-52
2022/01/30 01:14:10;;;;;;;55.63;12.90;;;29.90;67.50;;;;;;5042962;28;20092;-52
2022/01/30 01:24:51;;;;;;;103.72;14.20;;;30.00;67.70;;;;;;5042889;28;20140;-54
2022/01/30 01:27:38;;;;;;;54.10;12.90;;;30.00;67.00;;;;;;5022703;28;20365;-54
2022/01/30 01:30:05;;;;;;;46.67;11.02;;;30.00;66.90;;;;;;5022521;28;20069;-56
2022/01/30 01:32:32;;;;;;;41.97;11.40;;;30.00;66.80;;;;;;5009791;28;20405;-50
2022/01/30 01:35:08;;;;;;;33.38;10.27;;;30.00;66.90;;;;;;5102576;28;20024;-52
2022/01/30 01:37:36;;;;;;;26.77;10.00;;;30.00;66.80;;;;;;5083567;28;20032;-52
2022/01/30 01:40:04;;;;;;;24.95;9.90;;;30.00;66.80;;;;;;5102531;28;20082;-52
2022/01/30 01:42:34;;;;;;;58.35;11.23;;;30.00;66.70;;;;;;5102517;28;20016;-54
2022/01/30 01:45:01;;;;;;;136.65;15.77;;;30.00;66.70;;;;;;5086116;28;20044;-59
2022/01/30 01:47:32;;;;;;;69.53;12.07;;;29.90;66.70;;;;;;5102222;28;20306;-51
2022/01/30 01:50:03;;;;;;;45.28;10.88;;;29.90;66.50;;;;;;5102375;28;20027;-51
2022/01/30 01:52:31;;;;;;;45.17;10.93;;;29.90;66.60;;;;;;5102379;28;20300;-51
2022/01/30 01:54:59;;;;;;;47.83;11.15;;;29.90;66.70;;;;;;5102255;28;20034;-53
2022/01/30 01:57:29;;;;;;;40.83;10.63;;;29.90;66.60;;;;;;5102252;28;20073;-52
2022/01/30 01:59:56;;;;;;;30.92;10.18;;;29.80;66.60;;;;;;5102293;28;20024;-51
2022/01/30 02:02:24;;;;;;;29.65;10.15;;;29.80;66.70;;;;;;5102130;28;20020;-50
2022/01/30 02:04:52;;;;;;;32.03;9.73;;;29.80;66.80;;;;;;5102724;28;20039;-55
2022/01/30 02:10:12;;;;;;;29.77;10.02;;;29.80;66.90;;;;;;5104167;28;20067;-51
2022/01/30 02:12:48;;;;;;;23.50;9.02;;;29.80;67.00;;;;;;5102689;28;20083;-52
2022/01/30 02:26:06;;;;;;;37.38;10.95;;;29.60;67.70;;;;;;5107924;28;20054;-50
2022/01/30 02:28:34;;;;;;;33.58;10.52;;;29.50;67.80;;;;;;5088882;28;20271;-50
2022/01/30 02:31:10;;;;;;;37.47;11.05;;;29.50;68.10;;;;;;5097212;28;20321;-48
2022/01/30 02:33:39;;;;;;;30.88;11.05;;;29.40;68.00;;;;;;5097358;28;20087;-47
2022/01/30 02:36:06;;;;;;;25.15;9.73;;;29.40;68.50;;;;;;5106257;28;20028;-52
2022/01/30 02:38:34;;;;;;;25.40;10.02;;;29.40;68.60;;;;;;5107713;28;20046;-51
2022/01/30 02:41:01;;;;;;;28.60;10.77;;;29.40;68.70;;;;;;5097939;28;20027;-50
2022/01/30 02:43:33;;;;;;;26.50;10.77;;;29.40;68.80;;;;;;5088206;28;20328;-49
2022/01/30 02:46:08;;;;;;;;;;;29.30;69.00;;;;;;5097453;28;20069;-48
2022/01/30 02:48:57;;;;;;;28.50;11.02;;;29.20;69.30;;;;;;5106181;28;20192;-47
2022/01/30 02:51:32;;;;;;;18.15;9.60;;;29.10;69.70;;;;;;5107724;28;20024;-51
2022/01/30 02:54:06;;;;;;;27.00;10.82;;;29.10;69.80;;;;;;5108195;28;20095;-48
2022/01/30 02:56:35;;;;;;;16.90;10.40;;;29.10;69.90;;;;;;5108180;28;20054;-47
2022/01/30 02:59:01;;;;;;;24.45;10.38;;;29.00;70.60;;;;;;5107716;28;20304;-49
2022/01/30 03:01:28;;;;;;;18.35;10.23;;;29.00;70.00;;;;;;5107688;28;20202;-51
2022/01/30 03:03:54;;;;;;;23.80;11.20;;;29.00;70.00;;;;;;5107960;28;20028;-47
2022/01/30 03:06:21;;;;;;;22.70;10.90;;;29.00;69.80;;;;;;5098686;28;20028;-53
2022/01/30 03:08:48;;;;;;;26.58;11.35;;;29.00;70.00;;;;;;5087056;28;20053;-59
2022/01/30 03:11:14;;;;;;;23.25;11.07;;;29.00;69.90;;;;;;5087154;28;20036;-49
2022/01/30 03:13:41;;;;;;;23.52;10.45;;;29.00;69.80;;;;;;5086981;28;20031;-53
2022/01/30 03:16:08;;;;;;;23.52;10.13;;;29.10;69.80;;;;;;5086914;28;20039;-50
2022/01/30 03:18:35;;;;;;;19.48;9.95;;;29.10;69.50;;;;;;5086978;28;20190;-50
2022/01/30 03:21:03;;;;;;;21.48;10.18;;;29.10;69.30;;;;;;5086504;28;20051;-49
2022/01/30 03:23:30;;;;;;;19.63;10.07;;;29.10;69.20;;;;;;5087081;28;20024;-50
2022/01/30 03:25:59;;;;;;;20.98;10.13;;;29.10;69.20;;;;;;5086934;28;20027;-52
2022/01/30 03:28:27;;;;;;;20.52;10.43;;;29.10;69.30;;;;;;5086701;28;20300;-51
2022/01/30 03:30:59;;;;;;;16.98;10.98;;;29.10;69.10;;;;;;5086431;28;20024;-52
2022/01/30 03:33:26;;;;;;;14.68;9.95;;;29.10;69.00;;;;;;5086266;28;20016;-51
2022/01/30 03:35:53;;;;;;;32.95;10.93;;;29.10;68.90;;;;;;5086373;28;20123;-50
2022/01/30 03:38:20;;;;;;;31.10;9.90;;;29.10;69.00;;;;;;5086760;28;20031;-52
2022/01/30 03:40:47;;;;;;;24.00;10.70;;;29.10;69.00;;;;;;5086639;28;20080;-49
2022/01/30 03:43:14;;;;;;;28.02;10.02;;;29.10;69.10;;;;;;5086677;28;20066;-50
2022/01/30 03:45:42;;;;;;;22.75;10.77;;;29.10;69.20;;;;;;5086356;28;20020;-50
2022/01/30 03:48:09;;;;;;;21.40;11.07;;;29.10;69.30;;;;;;5086266;28;20301;-59
2022/01/30 03:50:36;;;;;;;12.55;11.30;;;29.10;69.40;;;;;;5086088;28;20195;-53
2022/01/30 03:53:03;;;;;;;17.02;10.27;;;29.10;69.30;;;;;;5086529;28;20016;-49
2022/01/30 03:55:30;;;;;;;20.00;10.77;;;29.10;69.50;;;;;;5086086;28;20031;-53
2022/01/30 03:57:57;;;;;;;22.40;10.90;;;29.10;69.50;;;;;;5085963;28;20031;-51
2022/01/30 04:00:24;;;;;;;14.02;10.23;;;29.00;69.50;;;;;;5086105;28;20077;-47
2022/01/30 04:02:50;;;;;;;18.40;10.07;;;29.00;69.30;;;;;;5086070;28;20038;-58
2022/01/30 04:05:17;;;;;;;14.00;10.00;;;29.00;69.40;;;;;;5085859;28;20083;-52
2022/01/30 04:07:46;;;;;;;11.25;10.02;;;29.00;69.20;;;;;;5085622;28;20025;-51
2022/01/30 04:10:13;;;;;;;15.38;10.00;;;29.00;69.70;;;;;;5099130;28;20055;-51
2022/01/30 04:12:41;;;;;;;13.85;9.82;;;28.90;69.20;;;;;;5096412;28;20354;-51
2022/01/30 04:15:09;;;;;;;11.75;10.55;;;28.90;69.20;;;;;;5098367;28;20061;-56
2022/01/30 04:17:36;;;;;;;13.10;10.02;;;28.90;69.20;;;;;;5106356;28;20016;-52
2022/01/30 04:20:03;;;;;;;11.15;9.82;;;28.90;69.10;;;;;;5105595;28;20028;-53
2022/01/30 04:22:30;;;;;;;13.35;9.68;;;28.90;69.20;;;;;;5096883;28;20032;-54
2022/01/30 04:24:56;;;;;;;13.90;9.88;;;28.90;68.90;;;;;;5095319;28;20024;-51
2022/01/30 04:27:23;;;;;;;12.13;9.88;;;28.90;68.80;;;;;;5096119;28;20008;-50
2022/01/30 04:29:50;;;;;;;12.57;9.57;;;28.90;68.60;;;;;;5095099;28;20036;-54
2022/01/30 04:32:17;;;;;;;11.85;9.30;;;28.90;68.50;;;;;;5094843;28;20008;-55
2022/01/30 04:34:52;;;;;;;13.70;9.55;;;28.90;68.40;;;;;;5096354;28;20047;-53
2022/01/30 04:37:27;;;;;;;12.73;9.85;;;28.90;68.40;;;;;;5095600;28;20304;-51
2022/01/30 04:56:39;;;;;;;12.38;9.38;;;28.60;68.50;;;;;;5124693;28;20012;-50
2022/01/30 05:01:35;;;;;;;11.00;8.93;;;28.50;68.70;;;;;;5124295;28;20316;-51
2022/01/30 05:04:19;;;;;;;11.48;9.23;;;28.60;68.80;;;;;;5124075;27;20023;-50
2022/01/30 05:09:22;;;;;;;10.93;9.43;;;28.60;68.70;;;;;;5123759;28;20117;-52
2022/01/30 05:11:48;;;;;;;12.88;9.43;;;28.60;68.70;;;;;;5123666;28;20026;-53
2022/01/30 05:14:16;;;;;;;13.50;9.05;;;28.60;68.80;;;;;;5124174;28;20023;-53
2022/01/30 05:16:43;;;;;;;12.93;9.40;;;28.60;68.80;;;;;;5125020;28;20018;-55
2022/01/30 05:19:12;;;;;;;10.32;9.27;;;28.60;68.80;;;;;;5125232;28;20024;-51
2022/01/30 05:21:39;;;;;;;12.88;9.63;;;28.60;68.90;;;;;;5125144;28;20057;-54
2022/01/30 05:24:06;;;;;;;12.10;9.93;;;28.60;69.10;;;;;;5125301;28;20027;-51
2022/01/30 05:26:36;;;;;;;12.70;9.82;;;28.60;69.20;;;;;;5124891;28;20015;-55
2022/01/30 05:29:03;;;;;;;12.60;9.90;;;28.60;69.40;;;;;;5125219;28;20331;-52
2022/01/30 05:31:30;;;;;;;12.68;9.77;;;28.50;69.30;;;;;;5124845;28;20015;-57
2022/01/30 05:33:57;;;;;;;10.73;9.60;;;28.50;69.20;;;;;;5125110;28;20028;-53
2022/01/30 05:36:24;;;;;;;11.88;10.38;;;28.50;69.50;;;;;;5090394;28;20013;-55
2022/01/30 05:38:52;;;;;;;11.95;9.98;;;28.50;69.50;;;;;;5094114;28;20033;-51
2022/01/30 05:41:19;;;;;;;11.85;10.68;;;28.50;69.50;;;;;;5104044;28;20315;-57
2022/01/30 05:43:50;;;;;;;12.48;10.15;;;28.50;69.50;;;;;;5103191;28;20138;-50
2022/01/30 05:46:30;;;;;;;13.52;10.57;;;28.50;69.40;;;;;;5104356;28;20019;-58
2022/01/30 05:48:57;;;;;;;15.43;10.52;;;28.40;69.40;;;;;;5103559;28;20037;-50
2022/01/30 05:51:24;;;;;;;12.23;10.50;;;28.40;69.30;;;;;;5096516;28;20032;-56
2022/01/30 05:53:50;;;;;;;12.45;10.25;;;28.40;69.10;;;;;;5095479;28;20031;-50
2022/01/30 05:56:17;;;;;;;11.48;9.75;;;28.40;69.20;;;;;;5103986;28;20035;-56
2022/01/30 05:58:44;;;;;;;10.30;9.40;;;28.40;69.10;;;;;;5104121;28;20036;-52
2022/01/30 06:01:10;;;;;;;13.45;10.02;;;28.40;69.10;;;;;;5103966;28;20016;-50
2022/01/30 06:03:37;;;;;;;11.95;9.70;;;28.40;69.10;;;;;;5103922;28;20028;-51
2022/01/30 06:06:05;;;;;;;12.48;9.70;;;28.30;69.00;;;;;;5104080;28;20063;-50
2022/01/30 06:08:45;;;;;;;10.95;9.80;;;28.30;69.00;;;;;;5103788;28;20086;-50
2022/01/30 06:11:12;;;;;;;11.38;9.80;;;28.30;68.90;;;;;;5104202;28;20038;-55
2022/01/30 06:13:40;;;;;;;12.95;9.85;;;28.30;68.80;;;;;;5104031;28;20052;-52
2022/01/30 06:16:07;;;;;;;12.05;9.45;;;28.30;69.30;;;;;;5103921;28;20047;-54
2022/01/30 06:18:33;;;;;;;12.82;10.52;;;28.30;68.70;;;;;;5104165;28;20032;-56
2022/01/30 06:21:01;;;;;;;11.00;9.98;;;28.30;68.70;;;;;;5103821;28;20027;-53
2022/01/30 06:23:28;;;;;;;11.73;10.48;;;28.20;68.60;;;;;;5103925;28;20078;-54
2022/01/30 06:25:54;;;;;;;11.43;10.32;;;28.20;68.60;;;;;;5103812;28;20021;-57
2022/01/30 06:28:21;;;;;;;13.70;10.75;;;28.20;68.60;;;;;;5099897;28;20070;-52
2022/01/30 06:30:48;;;;;;;13.30;10.68;;;28.20;68.60;;;;;;5083674;28;20373;-52
2022/01/30 06:33:16;;;;;;;11.43;10.20;;;28.10;68.40;;;;;;5083832;28;20028;-54
2022/01/30 06:35:42;;;;;;;11.75;10.40;;;28.20;68.50;;;;;;5083938;28;20023;-52
2022/01/30 06:38:09;;;;;;;11.77;9.93;;;28.20;68.50;;;;;;5084024;28;20035;-51
2022/01/30 06:40:35;;;;;;;15.18;11.13;;;28.20;68.50;;;;;;5083571;28;20084;-56
2022/01/30 06:43:02;;;;;;;12.73;10.82;;;28.10;68.50;;;;;;5083771;28;20259;-55
2022/01/30 06:45:29;;;;;;;17.33;11.40;;;28.10;68.60;;;;;;5083594;28;20020;-58
2022/01/30 06:47:56;;;;;;;12.43;11.32;;;28.10;68.50;;;;;;5083586;28;20283;-54
2022/01/30 06:50:24;;;;;;;13.15;11.30;;;28.10;68.50;;;;;;5083330;28;20022;-50
2022/01/30 06:52:50;;;;;;;14.18;11.73;;;28.10;68.50;;;;;;5083259;28;20024;-55
2022/01/30 06:55:17;;;;;;;13.13;11.68;;;28.10;68.50;;;;;;5083724;28;20040;-51
2022/01/30 06:57:45;;;;;;;13.15;11.93;;;28.10;68.60;;;;;;5083792;28;20058;-51
2022/01/30 07:00:12;;;;;;;13.07;11.65;;;28.10;68.60;;;;;;5083038;28;20204;-51
2022/01/30 07:02:39;;;;;;;13.88;12.43;;;28.00;68.50;;;;;;5083071;28;20201;-55
2022/01/30 07:05:06;;;;;;;14.80;12.70;;;28.00;68.40;;;;;;5083564;28;20021;-51
2022/01/30 07:07:33;;;;;;;15.30;12.73;;;28.00;68.50;;;;;;5084711;28;20083;-51
2022/01/30 07:10:00;;;;;;;14.75;13.10;;;28.00;68.50;;;;;;5087086;28;20048;-53
2022/01/30 07:12:27;;;;;;;15.80;13.18;;;28.00;68.50;;;;;;5086736;28;20024;-48
2022/01/30 07:15:01;;;;;;;15.18;13.57;;;28.00;68.40;;;;;;5087251;28;20029;-50
2022/01/30 07:17:27;;;;;;;15.20;13.70;;;28.00;68.50;;;;;;5086807;28;20017;-53
2022/01/30 07:19:54;;;;;;;15.68;13.43;;;27.90;68.50;;;;;;5087544;28;20029;-49
2022/01/30 07:22:20;;;;;;;13.90;12.45;;;27.90;68.70;;;;;;5086686;28;20330;-55
2022/01/30 07:24:47;;;;;;;14.35;12.85;;;27.90;68.80;;;;;;5087210;28;20036;-51
2022/01/30 07:27:13;;;;;;;16.10;12.38;;;27.90;69.00;;;;;;5086739;28;20083;-52
2022/01/30 07:29:40;;;;;;;14.25;12.70;;;27.90;69.00;;;;;;5086654;28;20032;-54
2022/01/30 07:32:07;;;;;;;15.43;12.95;;;27.90;69.10;;;;;;5086622;28;20052;-50
2022/01/30 07:34:34;;;;;;;13.98;12.45;;;27.80;69.30;;;;;;5086774;28;20087;-49
2022/01/30 07:37:00;;;;;;;16.50;12.35;;;27.70;69.40;;;;;;5086273;28;20020;-50
2022/01/30 07:39:29;;;;;;;15.10;12.38;;;27.70;69.60;;;;;;5086713;28;20032;-50
2022/01/30 07:41:56;;;;;;;16.63;12.00;;;27.70;69.60;;;;;;5086422;28;20039;-51
2022/01/30 07:44:23;;;;;;;14.48;11.85;;;27.70;69.60;;;;;;5086805;28;20032;-50
2022/01/30 07:46:50;;;;;;;14.63;11.68;;;27.70;69.60;;;;;;5086321;28;20016;-51
2022/01/30 07:49:16;;;;;;;12.95;11.30;;;27.70;69.90;;;;;;5086809;28;20085;-52
2022/01/30 07:51:43;;;;;;;12.90;11.35;;;27.70;69.90;;;;;;5086058;28;20013;-51
2022/01/30 07:54:09;;;;;;;12.43;11.13;;;27.70;69.90;;;;;;5086371;28;20035;-52
2022/01/30 07:56:36;;;;;;;13.38;11.77;;;27.60;70.10;;;;;;5086013;28;20309;-54
2022/01/30 07:59:02;;;;;;;13.48;11.00;;;27.60;70.30;;;;;;5086771;28;20082;-52
2022/01/30 08:01:29;;;;;;;15.95;11.38;;;27.50;70.30;;;;;;5085985;28;20017;-51
2022/01/30 08:03:55;;;;;;;11.98;10.77;;;27.60;70.40;;;;;;5086338;28;20036;-51
2022/01/30 08:06:22;;;;;;;12.45;11.15;;;27.60;70.40;;;;;;5085782;28;20044;-51
2022/01/30 08:08:49;;;;;;;15.02;11.43;;;27.60;70.50;;;;;;5085769;28;20124;-51
2022/01/30 08:11:15;;;;;;;16.38;10.55;;;27.60;70.60;;;;;;5085840;28;20247;-55
2022/01/30 08:13:42;;;;;;;13.20;11.23;;;27.50;70.70;;;;;;5085775;28;20025;-54
2022/01/30 08:16:09;;;;;;;12.73;10.82;;;27.40;71.20;;;;;;5086046;28;20020;-51
2022/01/30 08:18:37;;;;;;;13.88;10.80;;;27.30;71.30;;;;;;5084675;28;20062;-52
2022/01/30 08:21:04;;;;;;;13.98;11.05;;;27.40;71.40;;;;;;5085392;28;20247;-52
2022/01/30 08:23:33;;;;;;;12.95;11.27;;;27.40;71.60;;;;;;5085963;28;20051;-54
2022/01/30 08:26:01;;;;;;;12.30;11.00;;;27.40;71.60;;;;;;5085357;28;20048;-52
2022/01/30 08:28:28;;;;;;;15.23;11.32;;;27.40;71.60;;;;;;5067598;28;20305;-52
2022/01/30 08:30:54;;;;;;;13.82;12.00;;;27.30;71.80;;;;;;5085384;28;20020;-52
2022/01/30 08:33:21;;;;;;;14.88;11.85;;;27.30;71.80;;;;;;5085359;28;20052;-51
2022/01/30 08:35:49;;;;;;;15.13;11.27;;;27.30;71.90;;;;;;5085160;28;20017;-50
2022/01/30 08:38:18;;;;;;;12.25;10.98;;;27.30;72.00;;;;;;5085170;28;20024;-58
2022/01/30 08:40:48;;;;;;;14.52;11.20;;;27.30;72.00;;;;;;5085043;28;20087;-53
2022/01/30 08:43:15;;;;;;;12.20;10.90;;;27.30;72.10;;;;;;5085271;28;20040;-50
2022/01/30 08:45:42;;;;;;;12.30;11.00;;;27.30;72.00;;;;;;5085287;28;20016;-51
2022/01/30 08:48:09;;;;;;;13.90;11.65;;;27.30;72.10;;;;;;5085094;28;20064;-57
2022/01/30 08:50:35;;;;;;;16.60;12.30;;;27.30;72.30;;;;;;5084845;28;20316;-50
2022/01/30 08:53:03;;;;;;;13.95;11.35;;;27.20;72.40;;;;;;5085174;28;20032;-55
2022/01/30 08:55:29;;;;;;;14.23;11.60;;;27.20;72.50;;;;;;5084776;28;20042;-50
2022/01/30 08:57:57;;;;;;;12.95;11.57;;;27.20;72.70;;;;;;5084716;28;20017;-51
2022/01/30 09:00:24;;;;;;;14.00;11.65;;;27.20;72.50;;;;;;5084681;28;20088;-50
2022/01/30 09:02:51;;;;;;;14.40;12.07;;;27.20;72.50;;;;;;5084668;28;20039;-49
2022/01/30 09:05:18;;;;;;;14.60;12.63;;;27.20;72.70;;;;;;5084680;28;20178;-51
2022/01/30 09:07:44;;;;;;;15.52;11.80;;;27.20;72.70;;;;;;5084710;28;20019;-52
2022/01/30 09:10:12;;;;;;;14.55;12.48;;;27.20;72.60;;;;;;5084939;28;20256;-54
2022/01/30 09:12:39;;;;;;;13.50;12.20;;;27.20;72.50;;;;;;5084673;28;20012;-51
2022/01/30 09:15:08;;;;;;;14.73;13.25;;;27.20;72.60;;;;;;5084570;28;20078;-50
2022/01/30 09:17:35;;;;;;;14.57;12.23;;;27.10;72.70;;;;;;5085008;28;20050;-51
2022/01/30 09:20:04;;;;;;;14.63;12.85;;;27.10;72.60;;;;;;5084162;28;20036;-50
2022/01/30 09:22:30;;;;;;;14.45;12.95;;;27.10;72.80;;;;;;5084526;28;20177;-51
2022/01/30 09:24:57;;;;;;;14.45;12.98;;;27.10;72.90;;;;;;5085373;28;20032;-56
2022/01/30 09:27:24;;;;;;;14.57;12.90;;;27.10;72.80;;;;;;5084402;28;20084;-51
2022/01/30 09:29:50;;;;;;;14.18;12.68;;;27.10;72.90;;;;;;5084363;28;20051;-51
2022/01/30 09:32:17;;;;;;;18.13;13.80;;;27.10;72.90;;;;;;5084210;28;20078;-56
2022/01/30 09:34:44;;;;;;;14.68;12.45;;;27.00;73.10;;;;;;5084413;28;20023;-52
2022/01/30 09:37:11;;;;;;;13.63;12.35;;;27.00;73.00;;;;;;5084135;28;20312;-56
2022/01/30 09:39:38;;;;;;;14.27;12.35;;;27.00;73.00;;;;;;5085698;28;20037;-54
2022/01/30 09:42:06;;;;;;;16.85;12.85;;;27.00;72.90;;;;;;5084166;28;20062;-51
2022/01/30 09:44:40;;;;;;;18.58;13.52;;;26.80;73.20;;;;;;5084477;28;20058;-51
2022/01/30 09:47:17;;;;;;;18.45;13.18;;;26.70;73.60;;;;;;5084029;28;20339;-52
2022/01/30 09:49:52;;;;;;;13.55;12.23;;;26.60;73.40;;;;;;5084404;28;20032;-51
2022/01/30 09:52:19;;;;;;;21.73;13.15;;;26.60;73.50;;;;;;5083979;28;20019;-51
2022/01/30 09:54:48;;;;;;;16.50;11.57;;;26.60;73.70;;;;;;5084485;28;20025;-53
2022/01/30 09:57:15;;;;;;;13.50;11.60;;;26.60;73.90;;;;;;5084440;28;20020;-52
2022/01/30 09:59:42;;;;;;;13.27;11.65;;;26.60;74.10;;;;;;5084498;28;20078;-51
2022/01/30 10:02:09;;;;;;;12.73;11.18;;;26.60;74.10;;;;;;5083810;28;20016;-50
2022/01/30 10:04:38;;;;;;;13.35;11.98;;;26.70;74.20;;;;;;5084051;28;20095;-50
2022/01/30 10:07:14;;;;;;;13.98;12.38;;;26.70;74.10;;;;;;5083934;28;20021;-52
2022/01/30 10:09:49;;;;;;;15.68;11.77;;;26.70;74.00;;;;;;5083770;28;20059;-50
2022/01/30 10:12:19;;;;;;;17.20;12.57;;;26.70;74.00;;;;;;5083874;28;20032;-50
2022/01/30 10:15:03;;;;;;;18.45;13.05;;;26.70;73.90;;;;;;5083977;28;20205;-51
2022/01/30 10:17:38;;;;;;;14.20;12.85;;;26.80;74.10;;;;;;5084570;28;20013;-54
2022/01/30 10:20:12;;;;;;;14.38;12.85;;;26.80;74.00;;;;;;5083566;28;20027;-51
2022/01/30 10:22:53;;;;;;;15.68;13.60;;;26.80;73.80;;;;;;5083701;28;20016;-56
2022/01/30 10:25:24;;;;;;;15.93;13.07;;;26.80;73.90;;;;;;5083874;28;20047;-52
2022/01/30 10:28:25;;;;;;;17.87;14.03;;;26.80;73.90;;;;;;5083733;28;20040;-51
2022/01/30 10:30:55;;;;;;;18.27;13.68;;;26.80;73.80;;;;;;5083589;28;20012;-51
2022/01/30 10:33:37;;;;;;;15.82;13.50;;;26.70;73.80;;;;;;5083615;28;20021;-51
2022/01/30 10:36:04;;;;;;;16.77;13.60;;;26.70;73.90;;;;;;5083544;28;20059;-51
2022/01/30 10:38:38;;;;;;;15.35;13.55;;;26.70;74.00;;;;;;5083682;28;20037;-50
2022/01/30 10:41:18;;;;;;;17.50;13.52;;;26.70;74.00;;;;;;5083299;28;20169;-51
2022/01/30 10:44:00;;;;;;;26.20;14.05;;;26.60;73.90;;;;;;5087130;28;20055;-51
2022/01/30 10:46:42;;;;;;;38.63;13.95;;;26.70;73.90;;;;;;5087458;28;20201;-51
2022/01/30 10:49:11;;;;;;;91.68;16.25;;;26.60;73.90;;;;;;5088050;28;20024;-51
2022/01/30 10:51:38;;;;;;;31.90;14.35;;;26.60;73.90;;;;;;5087093;28;20035;-52
2022/01/30 10:54:09;;;;;;;32.53;14.40;;;26.60;73.80;;;;;;5087859;28;20348;-52
2022/01/30 10:56:36;;;;;;;20.30;14.13;;;26.60;73.80;;;;;;5087436;28;20020;-58
2022/01/30 10:59:16;;;;;;;22.95;13.80;;;26.60;73.70;;;;;;5087505;28;20036;-50
2022/01/30 11:01:45;;;;;;;21.75;13.50;;;26.60;73.50;;;;;;5087154;28;20085;-52
2022/01/30 11:04:29;;;;;;;26.80;14.55;;;26.60;73.60;;;;;;5086711;28;20134;-53
2022/01/30 11:06:59;;;;;;;33.90;14.57;;;26.60;73.40;;;;;;5086617;28;20020;-51
2022/01/30 11:09:49;;;;;;;26.33;14.63;;;26.60;73.40;;;;;;5086969;28;20072;-53
2022/01/30 11:12:16;;;;;;;28.88;13.82;;;26.60;73.30;;;;;;5086225;28;20036;-51
2022/01/30 11:17:21;;;;;;;25.85;14.07;;;26.60;73.30;;;;;;5086870;28;20012;-51
2022/01/30 11:19:52;;;;;;;32.22;14.32;;;26.60;73.30;;;;;;5087285;28;20033;-52
2022/01/30 11:22:21;;;;;;;21.17;13.45;;;26.50;73.10;;;;;;5086584;28;20308;-51
2022/01/30 11:24:54;;;;;;;25.38;14.23;;;26.60;73.10;;;;;;5087101;28;20032;-52
2022/01/30 11:27:22;;;;;;;22.70;13.57;;;26.50;73.00;;;;;;5086277;28;20016;-54
2022/01/30 11:29:51;;;;;;;17.42;13.77;;;26.50;72.90;;;;;;5087094;28;20029;-54
2022/01/30 11:32:20;;;;;;;17.67;13.93;;;26.50;72.90;;;;;;5086477;28;20016;-51
2022/01/30 11:34:47;;;;;;;22.55;13.40;;;26.50;72.90;;;;;;5086742;28;20032;-54
2022/01/30 11:37:17;;;;;;;25.50;14.02;;;26.50;73.00;;;;;;5086382;28;20092;-55
2022/01/30 11:39:49;;;;;;;20.55;13.55;;;26.40;73.10;;;;;;5086793;28;20070;-52
2022/01/30 11:42:44;;;;;;;23.42;12.95;;;26.40;73.20;;;;;;5086017;28;20367;-52
2022/01/30 11:45:12;;;;;;;18.70;13.05;;;26.40;73.10;;;;;;5085984;28;20028;-55
2022/01/30 11:47:51;;;;;;;22.20;14.00;;;26.40;73.10;;;;;;5086412;28;20047;-52
2022/01/30 11:50:29;;;;;;;26.30;13.25;;;26.50;73.20;;;;;;5085992;28;20052;-53
2022/01/30 11:53:28;;;;;;;23.83;13.20;;;26.50;73.20;;;;;;5085679;28;20040;-51
2022/01/30 11:56:02;;;;;;;25.17;14.70;;;26.50;73.40;;;;;;5085814;28;20051;-54
2022/01/30 11:58:58;;;;;;;26.00;16.05;;;26.40;73.30;;;;;;5086139;28;20025;-50
2022/01/30 12:01:29;;;;;;;22.80;14.93;;;26.50;73.50;;;;;;5102835;28;20069;-55
2022/01/30 12:04:02;;;;;;;32.85;18.38;;;26.50;73.50;;;;;;5126907;28;20339;-51
2022/01/30 12:06:32;;;;;;;23.98;15.57;;;26.50;73.40;;;;;;5126103;28;20027;-51
2022/01/30 12:09:22;;;;;;;31.60;15.43;;;26.50;73.50;;;;;;5109853;28;20066;-51
2022/01/30 12:11:49;;;;;;;24.90;14.57;;;26.40;73.50;;;;;;5105959;28;20016;-52
2022/01/30 12:14:21;;;;;;;22.80;13.70;;;26.50;73.50;;;;;;5106350;28;20028;-51
2022/01/30 12:16:53;;;;;;;28.73;13.10;;;26.50;73.60;;;;;;5105663;28;20008;-50
2022/01/30 12:19:31;;;;;;;26.35;13.73;;;26.50;73.50;;;;;;5106446;28;20059;-55
2022/01/30 12:22:25;;;;;;;27.90;13.30;;;26.50;73.50;;;;;;5106142;28;20042;-51
2022/01/30 12:25:13;;;;;;;27.80;13.60;;;26.50;73.50;;;;;;5097993;28;20078;-51
2022/01/30 12:27:49;;;;;;;51.70;13.60;;;26.50;73.50;;;;;;5105483;28;20087;-51
2022/01/30 12:30:40;;;;;;;30.55;12.70;;;26.60;73.90;;;;;;5105563;28;20023;-57
2022/01/30 12:33:32;;;;;;;24.92;11.80;;;26.60;73.90;;;;;;5105562;28;20057;-56
2022/01/30 12:36:10;;;;;;;25.17;12.00;;;26.60;73.90;;;;;;5105648;28;20300;-54
2022/01/30 12:38:36;;;;;;;34.05;12.40;;;26.60;74.00;;;;;;5105609;28;20062;-53
2022/01/30 12:41:21;;;;;;;25.63;12.32;;;26.60;73.90;;;;;;5105201;28;20027;-53
2022/01/30 12:43:56;;;;;;;18.42;11.73;;;26.60;74.20;;;;;;5105428;28;20091;-51
2022/01/30 12:46:26;;;;;;;27.92;12.30;;;26.60;73.90;;;;;;5105110;28;20062;-51
2022/01/30 12:49:08;;;;;;;26.73;13.30;;;26.70;73.90;;;;;;5105416;28;20035;-50
2022/01/30 12:51:37;;;;;;;34.33;13.50;;;26.70;74.00;;;;;;5104928;28;20016;-51
2022/01/30 12:54:04;;;;;;;50.80;16.00;;;26.70;73.80;;;;;;5105378;28;20035;-51
2022/01/30 12:56:32;;;;;;;58.47;21.85;;;26.80;74.20;;;;;;5105067;28;20040;-51
2022/01/30 12:59:06;;;;;;;116.50;21.52;;;26.80;74.50;;;;;;5105424;28;20028;-52
2022/01/30 13:01:35;;;;;;;75.28;16.88;;;26.80;74.20;;;;;;5102796;28;20031;-52
2022/01/30 13:04:04;;;;;;;39.53;15.18;;;26.80;74.10;;;;;;5092367;28;20024;-55
2022/01/30 13:06:33;;;;;;;32.90;14.20;;;26.80;74.20;;;;;;5092535;28;20095;-55
2022/01/30 13:08:59;;;;;;;21.35;13.20;;;26.80;74.20;;;;;;5084658;28;20040;-51
2022/01/30 13:11:26;;;;;;;26.33;14.52;;;26.80;74.20;;;;;;5084438;28;20019;-54
2022/01/30 13:13:55;;;;;;;41.38;15.70;;;26.80;74.20;;;;;;5076544;28;20029;-52
2022/01/30 13:16:28;;;;;;;29.45;14.40;;;26.80;74.60;;;;;;5095135;28;20087;-51
2022/01/30 13:18:55;;;;;;;29.58;14.15;;;26.90;74.70;;;;;;5098196;28;20203;-51
2022/01/30 13:21:32;;;;;;;34.22;17.02;;;26.90;74.90;;;;;;5084384;28;20027;-51
2022/01/30 13:24:00;;;;;;;30.63;15.70;;;26.90;75.20;;;;;;5084789;28;20095;-53
2022/01/30 13:26:44;;;;;;;26.77;14.38;;;26.90;75.30;;;;;;5084030;28;20024;-51
2022/01/30 13:29:19;;;;;;;22.58;14.20;;;26.90;75.30;;;;;;5087372;28;20032;-50
2022/01/30 13:31:57;;;;;;;24.58;14.07;;;27.00;74.90;;;;;;5101900;28;20043;-51
2022/01/30 13:34:34;;;;;;;24.25;14.30;;;27.00;74.80;;;;;;5104002;28;20031;-51